Time;durP1;ratioP1;P1;durP2;ratioP2;P2;SDS_P1;SDS_P2;PMS_P1;PMS_P2;Temp;Humidity;BMP_temperature;BMP_pressure;BME280_temperature;BME280_humidity;BME280_pressure;Samples;Min_cycle;Max_cycle;Signal;HPM_P1;HPM_P2
2024/04/19 00:01:27;;;;;;;6.33;5.20;;;8.00;99.90;;;;;;5358702;26;20472;-66
2024/04/19 00:03:52;;;;;;;8.40;5.10;;;7.90;99.90;;;;;;5356496;26;20231;-66
2024/04/19 00:06:18;;;;;;;6.80;5.10;;;7.90;99.90;;;;;;5355154;26;20281;-66
2024/04/19 00:08:43;;;;;;;8.40;6.70;;;7.90;99.90;;;;;;5350866;26;20234;-66
2024/04/19 00:11:09;;;;;;;6.80;5.57;;;8.00;99.90;;;;;;5360992;26;20619;-67
2024/04/19 00:13:35;;;;;;;8.07;6.33;;;8.00;99.90;;;;;;5354738;26;20237;-67
2024/04/19 00:16:00;;;;;;;7.30;5.50;;;7.90;99.90;;;;;;5350308;26;20242;-67
2024/04/19 00:18:27;;;;;;;7.20;5.60;;;8.00;99.90;;;;;;5353901;26;20289;-67
2024/04/19 00:20:54;;;;;;;8.13;6.23;;;8.00;99.90;;;;;;5343128;26;20338;-65
2024/04/19 00:23:21;;;;;;;6.90;6.20;;;8.10;99.90;;;;;;5350133;26;20469;-65
2024/04/19 00:25:46;;;;;;;8.73;6.40;;;8.00;99.90;;;;;;5350999;26;20626;-66
2024/04/19 00:28:12;;;;;;;7.60;6.33;;;8.10;99.90;;;;;;5356031;26;21030;-66
2024/04/19 00:30:37;;;;;;;7.13;5.90;;;8.00;99.90;;;;;;5353402;26;20291;-66
2024/04/19 00:33:03;;;;;;;8.70;6.80;;;8.00;99.90;;;;;;5337904;26;20278;-66
2024/04/19 00:35:29;;;;;;;7.93;6.40;;;8.10;99.90;;;;;;5348760;26;20569;-66
2024/04/19 00:37:54;;;;;;;10.50;7.07;;;8.10;99.90;;;;;;5356110;26;20279;-66
2024/04/19 00:40:20;;;;;;;8.23;7.07;;;8.10;99.90;;;;;;5359579;26;20253;-66
2024/04/19 00:42:49;;;;;;;8.87;7.17;;;8.10;99.90;;;;;;5351423;26;21104;-66
2024/04/19 00:45:33;;;;;;;8.93;6.27;;;8.00;99.90;;;;;;5351713;26;20270;-66
2024/04/19 00:48:22;;;;;;;8.40;6.43;;;8.10;99.90;;;;;;5349180;26;20470;-66
2024/04/19 00:50:51;;;;;;;8.63;6.80;;;8.10;99.90;;;;;;5329786;26;20621;-65
2024/04/19 00:53:21;;;;;;;10.97;6.73;;;8.10;99.90;;;;;;5353005;26;20460;-66
2024/04/19 00:55:48;;;;;;;7.47;6.67;;;8.00;99.90;;;;;;5357800;26;20611;-66
2024/04/19 00:58:14;;;;;;;8.23;6.40;;;8.10;99.90;;;;;;5346876;26;21324;-66
2024/04/19 01:00:40;;;;;;;7.80;6.70;;;8.10;99.90;;;;;;5350302;26;20462;-66
2024/04/19 01:03:06;;;;;;;9.33;7.77;;;8.20;99.90;;;;;;5347202;26;20231;-65
2024/04/19 01:05:31;;;;;;;9.20;7.47;;;8.00;99.90;;;;;;5344531;26;20988;-66
2024/04/19 01:07:58;;;;;;;8.80;6.97;;;8.10;99.90;;;;;;5349074;26;20230;-66
2024/04/19 01:10:23;;;;;;;9.57;6.93;;;8.10;99.90;;;;;;5347131;26;20243;-66
2024/04/19 01:12:49;;;;;;;7.43;6.70;;;8.10;99.90;;;;;;5350848;26;20563;-66
2024/04/19 01:15:16;;;;;;;8.90;6.70;;;8.10;99.90;;;;;;5359437;26;20243;-65
2024/04/19 01:17:41;;;;;;;9.67;6.90;;;8.00;99.90;;;;;;5363405;26;20269;-65
2024/04/19 01:20:07;;;;;;;9.47;7.17;;;8.00;99.90;;;;;;5354404;26;20548;-66
2024/04/19 01:22:33;;;;;;;9.37;6.67;;;8.00;99.90;;;;;;5351849;26;20302;-66
2024/04/19 01:24:59;;;;;;;10.30;6.60;;;8.10;99.90;;;;;;5349919;26;20227;-66
2024/04/19 01:27:25;;;;;;;10.87;7.00;;;8.10;99.90;;;;;;5351740;26;20587;-66
2024/04/19 01:29:50;;;;;;;8.87;5.60;;;8.00;99.90;;;;;;5352900;26;20489;-66
2024/04/19 01:32:16;;;;;;;9.20;5.87;;;8.10;99.90;;;;;;5349004;26;20346;-66
2024/04/19 01:34:41;;;;;;;9.40;6.63;;;8.00;99.90;;;;;;5345992;26;20268;-66
2024/04/19 01:37:07;;;;;;;8.30;7.00;;;8.00;99.90;;;;;;5346227;26;20708;-66
2024/04/19 01:39:33;;;;;;;8.70;6.77;;;8.00;99.90;;;;;;5353608;26;20570;-66
2024/04/19 01:41:58;;;;;;;6.33;5.53;;;7.90;99.90;;;;;;5346361;26;20243;-66
2024/04/19 01:44:24;;;;;;;10.87;6.50;;;8.00;99.90;;;;;;5364227;26;20873;-66
2024/04/19 01:46:49;;;;;;;8.63;7.47;;;8.00;99.90;;;;;;5366340;26;20230;-66
2024/04/19 01:49:15;;;;;;;7.87;6.90;;;8.00;99.90;;;;;;5349516;26;20241;-66
2024/04/19 01:51:40;;;;;;;7.63;5.63;;;8.00;99.90;;;;;;5351108;26;20283;-66
2024/04/19 01:54:06;;;;;;;8.67;7.77;;;8.00;99.90;;;;;;5353111;26;20250;-66
2024/04/19 01:56:31;;;;;;;8.10;6.07;;;8.00;99.90;;;;;;5350260;26;20233;-66
2024/04/19 01:58:57;;;;;;;10.60;7.20;;;8.00;99.90;;;;;;5355678;26;20734;-66
2024/04/19 02:01:23;;;;;;;8.00;7.03;;;8.10;99.90;;;;;;5361174;26;20230;-66
2024/04/19 02:03:48;;;;;;;7.90;6.60;;;8.00;99.90;;;;;;5345012;26;22925;-66
2024/04/19 02:06:15;;;;;;;8.87;6.97;;;8.00;99.90;;;;;;5348204;26;20234;-66
2024/04/19 02:08:41;;;;;;;9.17;7.00;;;7.90;99.90;;;;;;5360907;26;20607;-66
2024/04/19 02:11:06;;;;;;;8.10;6.07;;;8.00;99.90;;;;;;5351766;26;21078;-66
2024/04/19 02:13:32;;;;;;;12.50;7.43;;;8.00;99.90;;;;;;5343334;26;20524;-66
2024/04/19 02:15:59;;;;;;;7.87;6.37;;;8.00;99.90;;;;;;5352752;26;20720;-66
2024/04/19 02:18:24;;;;;;;7.03;6.10;;;8.00;99.90;;;;;;5353570;26;20564;-66
2024/04/19 02:20:50;;;;;;;8.80;6.90;;;8.00;99.90;;;;;;5355857;26;20601;-66
2024/04/19 02:23:40;;;;;;;7.50;6.40;;;8.00;99.90;;;;;;5351861;26;20230;-66
2024/04/19 02:26:06;;;;;;;8.17;6.13;;;8.00;99.90;;;;;;5340889;26;20226;-66
2024/04/19 02:31:17;;;;;;;8.77;6.20;;;8.10;99.90;;;;;;5345605;26;20626;-66
2024/04/19 02:33:45;;;;;;;8.70;6.27;;;8.10;99.90;;;;;;5354983;26;20476;-66
2024/04/19 02:36:11;;;;;;;10.43;7.50;;;8.10;99.90;;;;;;5361392;26;20731;-66
2024/04/19 02:38:37;;;;;;;10.57;6.90;;;7.90;99.90;;;;;;5358827;26;20464;-66
2024/04/19 02:41:03;;;;;;;7.20;6.50;;;8.00;99.90;;;;;;5341398;26;20293;-66
2024/04/19 02:43:29;;;;;;;8.10;6.80;;;8.00;99.90;;;;;;5355288;26;20460;-66
2024/04/19 02:45:55;;;;;;;9.63;6.87;;;8.00;99.90;;;;;;5354564;26;20552;-66
2024/04/19 02:48:21;;;;;;;9.37;7.30;;;8.00;99.90;;;;;;5348040;26;20472;-66
2024/04/19 02:50:50;;;;;;;10.70;8.47;;;8.10;99.90;;;;;;5370369;26;20236;-66
2024/04/19 02:53:18;;;;;;;10.43;7.60;;;8.00;99.90;;;;;;5357034;26;20568;-66
2024/04/19 02:55:43;;;;;;;9.23;6.57;;;8.10;99.90;;;;;;5348858;26;20468;-66
2024/04/19 02:58:09;;;;;;;8.10;6.10;;;8.10;99.90;;;;;;5348990;26;20526;-66
2024/04/19 03:00:35;;;;;;;9.70;7.03;;;8.10;99.90;;;;;;5351958;26;20230;-66
2024/04/19 03:03:00;;;;;;;7.40;6.27;;;8.20;99.90;;;;;;5348874;26;20222;-66
2024/04/19 03:05:26;;;;;;;8.70;6.40;;;8.20;99.90;;;;;;5358462;26;20294;-65
2024/04/19 03:07:52;;;;;;;9.27;7.67;;;8.10;99.90;;;;;;5344309;26;20285;-65
2024/04/19 03:10:17;;;;;;;10.33;7.50;;;8.00;99.90;;;;;;5343404;26;20247;-65
2024/04/19 03:12:43;;;;;;;7.90;6.07;;;8.10;99.90;;;;;;5348215;26;20234;-65
2024/04/19 03:15:08;;;;;;;10.17;6.70;;;8.10;99.90;;;;;;5343682;26;20241;-65
2024/04/19 03:17:34;;;;;;;7.80;6.03;;;8.10;99.90;;;;;;5357435;26;20285;-66
2024/04/19 03:19:59;;;;;;;7.87;6.80;;;8.10;99.90;;;;;;5350905;26;20723;-66
2024/04/19 03:22:25;;;;;;;11.30;7.30;;;8.00;99.90;;;;;;5353974;26;20635;-66
2024/04/19 03:24:50;;;;;;;8.70;6.83;;;8.00;99.90;;;;;;5355664;26;20234;-66
2024/04/19 03:27:16;;;;;;;10.80;6.83;;;8.00;99.90;;;;;;5349506;26;20314;-66
2024/04/19 03:29:42;;;;;;;8.30;6.57;;;8.10;99.90;;;;;;5349335;26;20241;-66
2024/04/19 03:32:07;;;;;;;9.13;6.90;;;8.20;99.90;;;;;;5356863;26;20242;-66
2024/04/19 03:34:33;;;;;;;6.97;5.80;;;8.10;99.90;;;;;;5358315;26;20294;-66
2024/04/19 03:36:58;;;;;;;10.00;7.13;;;8.10;99.90;;;;;;5355797;26;20269;-66
2024/04/19 03:39:24;;;;;;;7.90;6.33;;;8.10;99.90;;;;;;5358829;26;20306;-66
2024/04/19 03:41:51;;;;;;;9.57;6.50;;;8.10;99.90;;;;;;5350098;26;20242;-66
2024/04/19 03:47:01;;;;;;;7.50;6.37;;;8.10;99.90;;;;;;5347480;26;20522;-66
2024/04/19 03:49:26;;;;;;;7.80;6.97;;;8.10;99.90;;;;;;5355234;26;22267;-66
2024/04/19 03:51:53;;;;;;;12.30;7.50;;;8.20;99.90;;;;;;5347059;26;20251;-66
2024/04/19 03:54:18;;;;;;;7.60;6.83;;;8.20;99.90;;;;;;5346773;26;20239;-66
2024/04/19 03:56:44;;;;;;;10.10;7.67;;;8.10;99.90;;;;;;5345454;26;21055;-66
2024/04/19 03:59:11;;;;;;;8.13;6.60;;;8.10;99.90;;;;;;5341864;26;20337;-66
2024/04/19 04:01:36;;;;;;;9.77;7.17;;;8.10;99.90;;;;;;5341301;26;20251;-66
2024/04/19 04:04:02;;;;;;;10.53;8.03;;;8.00;99.90;;;;;;5354521;26;20549;-66
2024/04/19 04:06:28;;;;;;;9.00;7.33;;;8.00;99.90;;;;;;5352621;26;20340;-66
2024/04/19 04:08:54;;;;;;;7.93;6.53;;;8.00;99.90;;;;;;5352690;26;20234;-67
2024/04/19 04:11:19;;;;;;;9.57;7.53;;;7.90;99.90;;;;;;5358343;26;20823;-67
2024/04/19 04:13:45;;;;;;;9.60;7.27;;;8.00;99.90;;;;;;5356243;26;20541;-67
2024/04/19 04:16:10;;;;;;;9.33;7.13;;;8.00;99.90;;;;;;5348157;26;20293;-65
2024/04/19 04:18:36;;;;;;;9.47;7.57;;;8.10;99.90;;;;;;5345255;26;20331;-66
2024/04/19 04:21:02;;;;;;;10.60;8.20;;;8.00;99.90;;;;;;5353817;26;20238;-66
2024/04/19 04:23:28;;;;;;;10.40;7.53;;;8.10;99.90;;;;;;5351684;26;20565;-66
2024/04/19 04:25:53;;;;;;;10.43;7.63;;;8.00;99.90;;;;;;5347025;26;20542;-66
2024/04/19 04:28:19;;;;;;;8.30;6.90;;;7.90;99.90;;;;;;5345754;26;20591;-68
2024/04/19 04:30:45;;;;;;;10.27;6.83;;;8.00;99.90;;;;;;5365068;26;20282;-67
2024/04/19 04:33:10;;;;;;;9.80;8.03;;;8.00;99.90;;;;;;5341972;26;20558;-67
2024/04/19 04:35:37;;;;;;;12.97;7.90;;;8.00;99.90;;;;;;5354855;26;20298;-69
2024/04/19 04:38:03;;;;;;;8.90;7.10;;;8.00;99.90;;;;;;5358554;26;20266;-69
2024/04/19 04:40:31;;;;;;;9.53;7.47;;;8.00;99.90;;;;;;5341206;26;20528;-69
2024/04/19 04:42:56;;;;;;;11.80;7.67;;;8.00;99.90;;;;;;5342263;26;20515;-67
2024/04/19 04:45:22;;;;;;;9.17;7.37;;;8.00;99.90;;;;;;5344557;26;20465;-68
2024/04/19 04:47:48;;;;;;;10.83;7.50;;;8.10;99.90;;;;;;5343514;26;20236;-67
2024/04/19 04:50:13;;;;;;;11.50;7.80;;;8.00;99.90;;;;;;5347225;26;20235;-68
2024/04/19 04:52:39;;;;;;;13.00;7.80;;;8.00;99.90;;;;;;5362382;26;20602;-67
2024/04/19 04:55:05;;;;;;;9.70;7.97;;;8.10;99.90;;;;;;5361796;26;20230;-68
2024/04/19 04:57:31;;;;;;;10.17;7.70;;;8.00;99.90;;;;;;5349841;26;20328;-67
2024/04/19 04:59:56;;;;;;;10.40;7.90;;;8.00;99.90;;;;;;5351128;26;20472;-67
2024/04/19 05:02:22;;;;;;;12.50;8.60;;;8.00;99.90;;;;;;5357964;26;20228;-67
2024/04/19 05:04:47;;;;;;;12.47;9.00;;;8.00;99.90;;;;;;5349817;26;20629;-67
2024/04/19 05:07:13;;;;;;;11.03;8.03;;;7.90;99.90;;;;;;5360346;26;21069;-67
2024/04/19 05:09:38;;;;;;;9.20;7.30;;;8.00;99.90;;;;;;5360923;26;20273;-67
2024/04/19 05:12:04;;;;;;;12.20;8.40;;;7.90;99.90;;;;;;5357737;26;20250;-67
2024/04/19 05:14:30;;;;;;;17.03;8.63;;;8.00;99.90;;;;;;5371959;26;20234;-68
2024/04/19 05:16:55;;;;;;;10.23;7.70;;;7.90;99.90;;;;;;5359852;26;20345;-67
2024/04/19 05:19:21;;;;;;;10.60;7.87;;;8.00;99.90;;;;;;5358732;26;20239;-67
2024/04/19 05:21:46;;;;;;;10.23;8.13;;;8.10;99.90;;;;;;5362303;26;20247;-67
2024/04/19 05:24:12;;;;;;;10.13;8.47;;;8.10;99.90;;;;;;5364062;26;20335;-68
2024/04/19 05:26:37;;;;;;;11.20;7.73;;;8.20;99.90;;;;;;5356169;26;20247;-68
2024/04/19 05:29:03;;;;;;;11.37;8.10;;;8.20;99.90;;;;;;5369079;26;20638;-67
2024/04/19 05:31:28;;;;;;;9.40;8.03;;;8.20;99.90;;;;;;5355505;26;20231;-67
2024/04/19 05:33:54;;;;;;;8.93;7.90;;;8.20;99.90;;;;;;5364100;26;20376;-67
2024/04/19 05:36:20;;;;;;;10.40;8.80;;;8.30;99.90;;;;;;5348998;26;20238;-67
2024/04/19 05:38:45;;;;;;;11.40;8.47;;;8.30;99.90;;;;;;5354604;26;20239;-67
2024/04/19 05:41:11;;;;;;;11.00;8.40;;;8.30;99.90;;;;;;5341449;26;20862;-68
2024/04/19 05:43:37;;;;;;;13.23;8.03;;;8.40;99.90;;;;;;5350308;26;20243;-68
2024/04/19 05:46:02;;;;;;;10.70;7.93;;;8.40;99.90;;;;;;5361512;26;20561;-68
2024/04/19 05:48:28;;;;;;;14.60;8.27;;;8.10;99.90;;;;;;5355638;26;20792;-68
2024/04/19 05:50:53;;;;;;;11.27;9.37;;;8.00;99.90;;;;;;5354722;26;20231;-68
2024/04/19 05:53:19;;;;;;;9.80;7.70;;;8.00;99.90;;;;;;5354025;26;20231;-67
2024/04/19 05:55:45;;;;;;;11.20;9.53;;;8.10;99.90;;;;;;5340912;26;20863;-67
2024/04/19 05:58:10;;;;;;;12.57;8.63;;;8.20;99.90;;;;;;5344989;26;20258;-67
2024/04/19 06:00:36;;;;;;;13.13;8.10;;;8.10;99.90;;;;;;5352832;26;20979;-68
2024/04/19 06:03:01;;;;;;;11.37;9.63;;;8.10;99.90;;;;;;5358096;26;20360;-67
2024/04/19 06:05:27;;;;;;;10.67;8.60;;;8.10;99.90;;;;;;5351640;26;20659;-68
2024/04/19 06:07:52;;;;;;;13.70;9.97;;;8.20;99.90;;;;;;5352077;26;20230;-68
2024/04/19 06:10:18;;;;;;;12.07;8.70;;;8.20;99.90;;;;;;5356856;26;20241;-68
2024/04/19 06:12:43;;;;;;;12.50;9.83;;;8.30;99.90;;;;;;5352677;26;20306;-68
2024/04/19 06:15:09;;;;;;;10.47;8.57;;;8.20;99.90;;;;;;5347742;26;20239;-68
2024/04/19 06:17:35;;;;;;;8.57;6.83;;;8.20;99.90;;;;;;5345833;26;20326;-68
2024/04/19 06:20:00;;;;;;;10.47;8.60;;;8.20;99.90;;;;;;5355523;26;20717;-67
2024/04/19 06:22:26;;;;;;;11.20;8.67;;;8.20;99.90;;;;;;5350166;26;20719;-67
2024/04/19 06:24:51;;;;;;;11.77;8.30;;;8.20;99.90;;;;;;5367496;26;20277;-68
2024/04/19 06:27:17;;;;;;;10.27;7.87;;;8.20;99.90;;;;;;5355498;26;20348;-68
2024/04/19 06:29:42;;;;;;;11.50;8.03;;;8.20;99.90;;;;;;5352106;26;20294;-68
2024/04/19 06:32:09;;;;;;;11.33;8.60;;;8.20;99.90;;;;;;5349996;26;20590;-68
2024/04/19 06:34:36;;;;;;;11.97;7.77;;;8.20;99.90;;;;;;5355480;26;20743;-68
2024/04/19 06:37:02;;;;;;;9.67;7.20;;;8.20;99.90;;;;;;5350534;26;20493;-68
2024/04/19 06:39:28;;;;;;;8.50;6.80;;;8.10;99.90;;;;;;5347042;26;20478;-68
2024/04/19 06:41:54;;;;;;;10.97;8.80;;;8.10;99.90;;;;;;5365219;26;20582;-69
2024/04/19 06:44:20;;;;;;;9.60;8.03;;;8.10;99.90;;;;;;5360825;26;21525;-68
2024/04/19 06:46:46;;;;;;;13.00;8.10;;;8.10;99.90;;;;;;5360094;26;20604;-68
2024/04/19 06:49:11;;;;;;;10.43;8.40;;;8.10;99.90;;;;;;5346109;26;20478;-68
2024/04/19 06:51:37;;;;;;;9.37;7.60;;;8.10;99.90;;;;;;5362157;26;20731;-67
2024/04/19 06:54:03;;;;;;;10.83;8.00;;;8.10;99.90;;;;;;5351336;26;20864;-68
2024/04/19 06:56:29;;;;;;;8.83;6.97;;;8.20;99.90;;;;;;5354850;26;20273;-67
2024/04/19 06:58:54;;;;;;;10.30;8.37;;;8.00;99.90;;;;;;5349227;26;20917;-68
2024/04/19 07:01:21;;;;;;;10.00;8.60;;;8.00;99.90;;;;;;5366311;26;20249;-67
2024/04/19 07:03:47;;;;;;;9.13;7.60;;;7.90;99.90;;;;;;5358885;26;21109;-67
2024/04/19 07:06:14;;;;;;;11.20;7.83;;;7.90;99.90;;;;;;5365000;26;20482;-67
2024/04/19 07:08:40;;;;;;;9.67;7.90;;;8.00;99.90;;;;;;5355221;26;20560;-68
2024/04/19 07:11:06;;;;;;;9.50;7.83;;;8.00;99.90;;;;;;5344463;26;20544;-67
2024/04/19 07:13:33;;;;;;;8.40;7.00;;;8.00;99.90;;;;;;5357326;26;20804;-67
2024/04/19 07:15:59;;;;;;;7.83;6.40;;;8.00;99.90;;;;;;5364982;26;20464;-68
2024/04/19 07:18:25;;;;;;;8.87;6.80;;;8.00;99.90;;;;;;5360669;26;20558;-67
2024/04/19 07:20:51;;;;;;;8.70;6.80;;;8.00;99.90;;;;;;5361504;26;20598;-68
2024/04/19 07:23:18;;;;;;;7.77;6.47;;;8.00;99.90;;;;;;5343739;26;20277;-68
2024/04/19 07:25:44;;;;;;;7.03;4.87;;;8.10;99.90;;;;;;5347074;26;20985;-68
2024/04/19 07:28:09;;;;;;;8.97;6.93;;;7.90;99.90;;;;;;5344656;26;20524;-68
2024/04/19 07:30:35;;;;;;;9.63;7.80;;;7.80;99.90;;;;;;5351154;26;20271;-68
2024/04/19 07:33:01;;;;;;;8.30;6.90;;;7.80;99.90;;;;;;5355284;26;20250;-68
2024/04/19 07:35:27;;;;;;;11.00;7.90;;;7.70;99.90;;;;;;5351498;26;20892;-68
2024/04/19 07:37:53;;;;;;;8.87;7.23;;;7.70;99.90;;;;;;5354443;26;20600;-68
2024/04/19 07:40:18;;;;;;;10.00;7.93;;;7.70;99.90;;;;;;5369930;26;20607;-68
2024/04/19 07:42:45;;;;;;;9.00;6.83;;;7.70;99.90;;;;;;5353350;26;20250;-68
2024/04/19 07:45:11;;;;;;;8.33;6.77;;;7.50;99.90;;;;;;5351880;26;20301;-68
2024/04/19 07:47:37;;;;;;;6.83;5.80;;;7.40;99.90;;;;;;5358028;26;20508;-68
2024/04/19 07:50:03;;;;;;;7.23;6.43;;;7.40;99.90;;;;;;5354173;26;20528;-68
2024/04/19 07:52:29;;;;;;;6.57;5.83;;;7.30;99.90;;;;;;5345774;26;20557;-68
2024/04/19 07:54:54;;;;;;;8.07;6.67;;;7.30;99.90;;;;;;5345429;26;20530;-67
2024/04/19 07:57:20;;;;;;;9.10;6.97;;;7.30;99.90;;;;;;5354604;26;20944;-67
2024/04/19 07:59:45;;;;;;;6.27;5.50;;;7.20;99.90;;;;;;5360067;26;20277;-67
2024/04/19 08:02:11;;;;;;;6.70;5.83;;;7.10;99.90;;;;;;5352123;26;20235;-68
2024/04/19 08:04:37;;;;;;;11.30;6.53;;;7.10;99.90;;;;;;5358426;26;20879;-68
2024/04/19 08:07:02;;;;;;;7.07;5.97;;;7.10;99.90;;;;;;5354602;26;20281;-69
2024/04/19 08:09:28;;;;;;;9.03;6.00;;;7.10;99.90;;;;;;5349152;26;20835;-68
2024/04/19 08:11:53;;;;;;;6.23;5.57;;;7.10;99.90;;;;;;5358861;26;20727;-68
2024/04/19 08:14:19;;;;;;;6.17;5.23;;;7.20;99.90;;;;;;5345890;26;20830;-68
2024/04/19 08:16:44;;;;;;;7.80;6.03;;;7.10;99.90;;;;;;5351413;26;20247;-68
2024/04/19 08:19:10;;;;;;;6.93;5.77;;;7.10;99.90;;;;;;5357965;26;20222;-68
2024/04/19 08:21:36;;;;;;;8.37;6.80;;;7.20;99.90;;;;;;5360897;26;20292;-68
2024/04/19 08:24:03;;;;;;;7.60;5.63;;;7.10;99.90;;;;;;5361395;26;20285;-67
2024/04/19 08:26:28;;;;;;;7.10;5.90;;;7.10;99.90;;;;;;5346812;26;20243;-68
2024/04/19 08:28:54;;;;;;;8.70;7.00;;;7.10;99.90;;;;;;5354601;26;20519;-68
2024/04/19 08:31:19;;;;;;;8.23;6.63;;;7.00;99.90;;;;;;5360202;26;20231;-68
2024/04/19 08:33:45;;;;;;;11.90;7.53;;;7.10;99.90;;;;;;5352887;26;20346;-68
2024/04/19 08:36:11;;;;;;;8.90;7.13;;;7.20;99.90;;;;;;5344382;26;20335;-68
2024/04/19 08:38:36;;;;;;;9.23;7.00;;;7.20;99.90;;;;;;5348575;26;20624;-68
2024/04/19 08:41:04;;;;;;;12.20;7.60;;;7.10;99.90;;;;;;5353564;26;20234;-68
2024/04/19 08:43:35;;;;;;;8.73;6.53;;;7.10;99.90;;;;;;5347070;26;20300;-68
2024/04/19 08:46:03;;;;;;;12.60;6.67;;;7.10;99.90;;;;;;5351553;26;20464;-68
2024/04/19 08:48:28;;;;;;;9.80;6.03;;;7.00;99.90;;;;;;5356241;26;20484;-68
2024/04/19 08:50:58;;;;;;;7.03;5.03;;;7.10;99.90;;;;;;5364511;26;20519;-68
2024/04/19 08:53:27;;;;;;;7.80;5.50;;;7.10;99.90;;;;;;5373142;26;20271;-67
2024/04/19 08:55:54;;;;;;;8.37;6.07;;;7.10;99.90;;;;;;5352653;26;20468;-68
2024/04/19 08:58:21;;;;;;;7.10;5.73;;;7.20;99.90;;;;;;5359184;26;20802;-68
2024/04/19 09:00:47;;;;;;;7.47;4.73;;;7.20;99.90;;;;;;5352725;26;22006;-68
2024/04/19 09:03:13;;;;;;;7.43;5.70;;;7.10;99.90;;;;;;5353010;26;20531;-67
2024/04/19 09:05:40;;;;;;;8.63;6.40;;;7.10;99.90;;;;;;5358106;26;20572;-68
2024/04/19 09:08:06;;;;;;;8.53;6.47;;;7.10;99.90;;;;;;5357246;26;20697;-67
2024/04/19 09:10:32;;;;;;;7.17;6.10;;;7.10;99.90;;;;;;5357579;26;20452;-68
2024/04/19 09:12:58;;;;;;;8.50;6.00;;;7.20;99.90;;;;;;5352267;26;20543;-67
2024/04/19 09:15:27;;;;;;;5.80;4.80;;;7.20;99.90;;;;;;5363338;26;20286;-67
2024/04/19 09:17:54;;;;;;;6.43;5.70;;;7.20;99.90;;;;;;5352578;26;20469;-68
2024/04/19 09:20:20;;;;;;;7.07;5.77;;;7.20;99.90;;;;;;5362217;26;20571;-67
2024/04/19 09:22:46;;;;;;;9.10;6.77;;;7.20;99.90;;;;;;5349967;26;20524;-68
2024/04/19 09:25:16;;;;;;;8.20;6.47;;;7.10;99.90;;;;;;5361893;26;20818;-68
2024/04/19 09:27:42;;;;;;;8.57;6.30;;;7.20;99.90;;;;;;5352818;26;20516;-68
2024/04/19 09:30:10;;;;;;;7.70;6.20;;;7.20;99.90;;;;;;5357019;26;20513;-68
2024/04/19 09:32:36;;;;;;;6.80;5.90;;;7.20;99.90;;;;;;5351220;26;20474;-68
2024/04/19 09:35:02;;;;;;;8.53;6.30;;;7.20;99.90;;;;;;5356988;26;20514;-68
2024/04/19 09:37:29;;;;;;;13.03;5.90;;;7.20;99.90;;;;;;5351753;26;20450;-68
2024/04/19 09:39:55;;;;;;;6.83;5.70;;;7.10;99.90;;;;;;5350147;26;20515;-68
2024/04/19 09:42:24;;;;;;;8.30;6.50;;;7.10;99.90;;;;;;5352072;26;20477;-68
2024/04/19 09:44:51;;;;;;;8.03;6.37;;;7.10;99.90;;;;;;5350133;26;20558;-67
2024/04/19 09:47:17;;;;;;;9.27;7.20;;;7.10;99.90;;;;;;5353447;26;20472;-68
2024/04/19 09:49:46;;;;;;;8.80;6.50;;;7.20;99.90;;;;;;5371361;26;20472;-68
2024/04/19 09:52:22;;;;;;;10.50;8.07;;;7.10;99.90;;;;;;5364166;26;20492;-68
2024/04/19 09:55:16;;;;;;;8.53;7.23;;;7.30;99.90;;;;;;5354348;26;20466;-68
2024/04/19 09:57:46;;;;;;;9.23;6.43;;;7.20;99.90;;;;;;5354229;26;20472;-69
2024/04/19 10:00:14;;;;;;;9.10;7.20;;;7.30;99.90;;;;;;5350566;26;20476;-68
2024/04/19 10:02:42;;;;;;;7.27;6.10;;;7.20;99.90;;;;;;5362392;26;20838;-68
2024/04/19 10:05:09;;;;;;;7.97;6.77;;;7.30;99.90;;;;;;5359534;26;20472;-67
2024/04/19 10:07:37;;;;;;;9.20;7.53;;;7.30;99.90;;;;;;5356699;26;20537;-67
2024/04/19 10:10:04;;;;;;;9.60;7.80;;;7.30;99.90;;;;;;5358080;26;20581;-68
2024/04/19 10:12:32;;;;;;;9.30;7.60;;;7.40;99.90;;;;;;5360228;26;20471;-68
2024/04/19 10:14:57;;;;;;;8.17;6.53;;;7.40;99.90;;;;;;5361712;26;20552;-68
2024/04/19 10:17:24;;;;;;;7.87;6.57;;;7.40;99.90;;;;;;5366366;26;20477;-69
2024/04/19 10:19:50;;;;;;;9.47;7.40;;;7.40;99.90;;;;;;5349364;26;20226;-68
2024/04/19 10:22:22;;;;;;;9.43;7.43;;;7.40;99.90;;;;;;5348155;26;20485;-69
2024/04/19 10:25:00;;;;;;;12.30;7.23;;;7.50;99.90;;;;;;5377622;26;20478;-68
2024/04/19 10:27:30;;;;;;;10.50;8.00;;;7.50;99.90;;;;;;5356389;26;20474;-69
2024/04/19 10:29:59;;;;;;;7.73;6.07;;;7.50;99.90;;;;;;5347547;26;20462;-69
2024/04/19 10:32:24;;;;;;;13.67;8.00;;;7.50;99.90;;;;;;5354293;26;20474;-69
2024/04/19 10:34:53;;;;;;;8.67;7.67;;;7.50;99.90;;;;;;5354307;26;20525;-68
2024/04/19 10:37:19;;;;;;;11.60;6.23;;;7.50;99.90;;;;;;5358040;26;20223;-68
2024/04/19 10:39:46;;;;;;;8.50;6.80;;;7.50;99.90;;;;;;5357791;26;20472;-68
2024/04/19 10:42:11;;;;;;;9.07;6.83;;;7.50;99.90;;;;;;5355723;26;20583;-68
2024/04/19 10:44:41;;;;;;;8.90;7.17;;;7.60;99.90;;;;;;5355737;26;20452;-68
2024/04/19 10:47:08;;;;;;;10.63;7.57;;;7.50;99.90;;;;;;5351660;26;20262;-68
2024/04/19 10:49:33;;;;;;;9.00;7.10;;;7.50;99.90;;;;;;5344297;26;20516;-68
2024/04/19 10:51:59;;;;;;;8.63;6.23;;;7.60;99.90;;;;;;5351789;26;20474;-68
2024/04/19 10:54:25;;;;;;;11.37;8.10;;;7.60;99.90;;;;;;5348442;26;20243;-68
2024/04/19 10:56:52;;;;;;;10.03;6.60;;;7.60;99.90;;;;;;5354552;26;20334;-68
2024/04/19 10:59:18;;;;;;;11.17;7.90;;;7.50;99.90;;;;;;5345692;26;20458;-68
2024/04/19 11:01:45;;;;;;;9.00;7.60;;;7.60;99.90;;;;;;5347350;26;20560;-68
2024/04/19 11:04:12;;;;;;;7.90;7.07;;;7.60;99.90;;;;;;5346915;26;20469;-68
2024/04/19 11:06:38;;;;;;;9.00;8.03;;;7.60;99.90;;;;;;5347693;26;20466;-67
2024/04/19 11:09:04;;;;;;;7.73;6.33;;;7.60;99.90;;;;;;5350248;26;20464;-68
2024/04/19 11:11:37;;;;;;;7.73;6.80;;;7.50;99.90;;;;;;5359578;26;20472;-67
2024/04/19 11:14:09;;;;;;;12.30;6.50;;;7.40;99.90;;;;;;5354013;26;20651;-68
2024/04/19 11:16:35;;;;;;;9.90;5.90;;;7.30;99.90;;;;;;5359177;26;21080;-68
2024/04/19 11:19:01;;;;;;;10.43;6.50;;;7.30;99.90;;;;;;5352527;26;20521;-68
2024/04/19 11:21:27;;;;;;;8.60;7.70;;;7.30;99.90;;;;;;5359697;26;20304;-68
2024/04/19 11:23:53;;;;;;;9.63;7.70;;;7.30;99.90;;;;;;5349431;26;20223;-68
2024/04/19 11:26:19;;;;;;;9.10;6.73;;;7.40;99.90;;;;;;5352950;26;20577;-68
2024/04/19 11:28:47;;;;;;;9.70;7.40;;;7.30;99.90;;;;;;5355327;26;20275;-68
2024/04/19 11:31:14;;;;;;;7.33;6.23;;;7.40;99.90;;;;;;5350070;26;20250;-68
2024/04/19 11:33:40;;;;;;;10.30;6.77;;;7.40;99.90;;;;;;5349765;26;20468;-68
2024/04/19 11:36:09;;;;;;;10.80;6.83;;;7.40;99.90;;;;;;5362506;26;20578;-68
2024/04/19 11:38:35;;;;;;;8.00;7.20;;;7.40;99.90;;;;;;5345437;26;20270;-68
2024/04/19 11:41:01;;;;;;;9.10;7.00;;;7.40;99.90;;;;;;5362764;26;20468;-68
2024/04/19 11:43:27;;;;;;;6.20;4.80;;;7.40;99.90;;;;;;5355792;26;20366;-68
2024/04/19 11:45:53;;;;;;;7.13;6.27;;;7.40;99.90;;;;;;5357194;26;20231;-68
2024/04/19 11:48:24;;;;;;;7.50;6.10;;;7.30;99.90;;;;;;5352318;26;20242;-69
2024/04/19 11:50:49;;;;;;;7.07;5.70;;;7.40;99.90;;;;;;5355460;26;20466;-68
2024/04/19 11:53:15;;;;;;;9.03;7.00;;;7.30;99.90;;;;;;5352679;26;20585;-68
2024/04/19 11:55:40;;;;;;;7.30;6.50;;;7.30;99.90;;;;;;5353877;26;20222;-68
2024/04/19 11:58:06;;;;;;;9.30;6.73;;;7.30;99.90;;;;;;5343253;26;20771;-68
2024/04/19 12:00:32;;;;;;;7.67;6.40;;;7.30;99.90;;;;;;5347969;26;20243;-68
2024/04/19 12:02:57;;;;;;;7.50;6.53;;;7.40;99.90;;;;;;5364014;26;20235;-68
2024/04/19 12:05:23;;;;;;;11.13;6.17;;;7.50;99.90;;;;;;5360002;26;20234;-69
2024/04/19 12:07:49;;;;;;;7.37;6.17;;;7.60;99.90;;;;;;5360004;26;20242;-69
2024/04/19 12:10:15;;;;;;;12.70;6.40;;;7.50;99.90;;;;;;5363506;26;21181;-68
2024/04/19 12:12:40;;;;;;;8.87;6.13;;;7.50;99.90;;;;;;5363570;26;20308;-68
2024/04/19 12:15:06;;;;;;;8.57;5.90;;;7.40;99.90;;;;;;5347549;26;20492;-68
2024/04/19 12:17:32;;;;;;;8.70;5.97;;;7.50;99.90;;;;;;5372321;26;20233;-68
2024/04/19 12:19:57;;;;;;;8.83;6.80;;;7.50;99.90;;;;;;5352017;26;20251;-68
2024/04/19 12:22:23;;;;;;;7.40;5.80;;;7.40;99.90;;;;;;5370091;26;20487;-69
2024/04/19 12:24:48;;;;;;;6.77;5.70;;;7.50;99.90;;;;;;5350947;26;20239;-68
2024/04/19 12:27:14;;;;;;;7.93;7.10;;;7.50;99.90;;;;;;5334530;26;20268;-68
2024/04/19 12:29:43;;;;;;;7.13;6.07;;;7.60;99.90;;;;;;5360135;26;20580;-68
2024/04/19 12:32:09;;;;;;;6.90;6.00;;;7.60;99.90;;;;;;5355601;26;20487;-69
2024/04/19 12:34:35;;;;;;;8.97;5.67;;;7.70;99.90;;;;;;5348839;26;21090;-69
2024/04/19 12:37:01;;;;;;;7.77;6.67;;;7.60;99.90;;;;;;5355769;26;20515;-68
2024/04/19 12:39:26;;;;;;;9.00;6.30;;;7.80;99.90;;;;;;5355906;26;20809;-68
2024/04/19 12:41:53;;;;;;;9.57;6.70;;;7.70;99.90;;;;;;5364932;26;20242;-67
2024/04/19 12:44:19;;;;;;;8.47;5.70;;;7.80;99.90;;;;;;5351420;26;20234;-67
2024/04/19 12:46:45;;;;;;;7.60;6.30;;;7.80;99.90;;;;;;5343099;26;20462;-67
2024/04/19 12:49:15;;;;;;;8.83;6.13;;;7.80;99.90;;;;;;5346459;26;20591;-67
2024/04/19 12:51:40;;;;;;;8.70;6.90;;;7.80;99.90;;;;;;5341300;26;20820;-67
2024/04/19 12:54:06;;;;;;;7.73;5.77;;;7.80;99.90;;;;;;5358787;26;20552;-68